Bishop, Texas
Current Conditions -  °F | °C
As of 12:56 PM on Friday 24 Oct 2014 (Local Time) from KNQI Reporting Station
Few Clouds Few Clouds  
Wind Chill: 29°   Ceiling: Unl
Heat Index: 30°   Visibility: 10mi
Dew Point: 18°   Wind: 7mph
Humidity: 51%   Direction: 70°ENE
Pressure: 30.14"   Gusts: NA
Location:  27.59°N, 97.8°W
Report Text: KNQI 241756Z 07006KT 10SM FEW030 FEW250 29/18 A3014 RMK AO2 SLP201 T02940183 10294 20156 58007
Loading
Personal Weather Stations






























Interactive Weather Map
Tropical Storm Tracking
New forecast layout! Learn more

10-Day Weather Forecast

Advertisements
Track Severe Weather on mobile